Time;durP1;ratioP1;P1;durP2;ratioP2;P2;SDS_P1;SDS_P2;PMS_P1;PMS_P2;Temp;Humidity;BMP_temperature;BMP_pressure;BME280_temperature;BME280_humidity;BME280_pressure;Samples;Min_cycle;Max_cycle;Signal;HPM_P1;HPM_P2
2022/06/06 00:01:17;;;;;;;7.40;5.20;;;13.20;99.90;;;;;;5113947;28;20043;-52
2022/06/06 00:03:44;;;;;;;10.57;4.95;;;13.30;99.90;;;;;;5109479;28;20584;-58
2022/06/06 00:06:11;;;;;;;7.50;4.88;;;13.30;99.90;;;;;;5114099;28;20027;-53
2022/06/06 00:08:39;;;;;;;8.85;4.97;;;13.20;99.60;;;;;;5113543;28;20539;-40
2022/06/06 00:11:05;;;;;;;7.40;5.10;;;13.20;99.40;;;;;;5113622;28;20072;-42
2022/06/06 00:13:32;;;;;;;6.53;4.50;;;13.10;99.40;;;;;;5113838;28;20026;-44
2022/06/06 00:15:59;;;;;;;9.15;5.03;;;13.00;99.40;;;;;;5113658;28;20042;-40
2022/06/06 00:18:24;;;;;;;8.65;5.03;;;13.00;99.30;;;;;;5095310;28;20058;-40
2022/06/06 00:20:50;;;;;;;9.25;4.60;;;12.90;99.30;;;;;;5113471;28;20902;-40
2022/06/06 00:23:16;;;;;;;9.18;5.13;;;12.90;99.40;;;;;;5108583;28;20485;-40
2022/06/06 00:25:41;;;;;;;9.43;4.80;;;12.80;99.40;;;;;;5106833;28;20092;-40
2022/06/06 00:28:07;;;;;;;8.52;4.47;;;12.80;99.50;;;;;;5106430;28;20054;-41
2022/06/06 00:30:32;;;;;;;7.00;4.95;;;12.80;99.60;;;;;;5113267;28;20027;-40
2022/06/06 00:35:42;;;;;;;8.20;4.90;;;12.70;99.60;;;;;;5113594;28;20039;-40
2022/06/06 00:38:09;;;;;;;9.02;5.25;;;12.70;99.80;;;;;;5113166;28;20019;-47
2022/06/06 00:40:35;;;;;;;10.50;5.10;;;12.60;99.90;;;;;;5113262;28;20035;-58
2022/06/06 00:43:03;;;;;;;8.15;5.38;;;12.60;99.90;;;;;;5104898;28;20031;-51
2022/06/06 00:45:37;;;;;;;9.68;6.32;;;12.60;99.90;;;;;;5105440;28;20028;-61
2022/06/06 00:48:11;;;;;;;10.02;5.85;;;12.60;99.90;;;;;;5113237;28;20070;-56
2022/06/06 00:51:07;;;;;;;9.68;5.88;;;12.60;99.90;;;;;;5112075;28;20030;-44
2022/06/06 00:53:41;;;;;;;11.27;6.05;;;12.60;99.90;;;;;;5112827;28;20023;-44
2022/06/06 00:56:50;;;;;;;10.85;5.35;;;12.60;99.90;;;;;;5102183;28;20106;-49
2022/06/06 00:59:23;;;;;;;9.95;5.53;;;12.70;99.90;;;;;;5097010;28;20083;-57
2022/06/06 01:01:51;;;;;;;12.15;5.45;;;12.60;99.90;;;;;;5088466;28;20067;-49
2022/06/06 01:04:21;;;;;;;13.70;6.00;;;12.60;99.90;;;;;;5112938;28;20033;-55
2022/06/06 01:06:47;;;;;;;9.57;5.93;;;12.70;99.90;;;;;;5112825;28;20027;-50
2022/06/06 01:09:15;;;;;;;13.88;6.07;;;12.70;99.90;;;;;;5112574;28;20098;-46
2022/06/06 01:11:50;;;;;;;13.55;5.38;;;12.70;99.90;;;;;;5112685;28;20032;-52
2022/06/06 01:14:19;;;;;;;9.60;4.80;;;12.80;99.90;;;;;;5112583;28;20047;-61
2022/06/06 01:16:50;;;;;;;10.63;5.30;;;12.70;99.90;;;;;;5112651;28;20031;-56
2022/06/06 01:19:37;;;;;;;10.23;4.97;;;12.80;99.90;;;;;;5112378;28;20022;-56
2022/06/06 01:22:11;;;;;;;20.05;6.00;;;12.80;99.90;;;;;;5094231;28;20077;-57
2022/06/06 01:25:00;;;;;;;10.70;4.38;;;12.80;99.90;;;;;;5098454;28;20038;-52
2022/06/06 01:27:34;;;;;;;13.32;5.40;;;12.80;99.90;;;;;;5105429;28;20074;-57
2022/06/06 01:30:06;;;;;;;11.50;4.95;;;12.80;99.90;;;;;;5110444;28;20058;-62
2022/06/06 01:32:40;;;;;;;9.73;4.70;;;12.80;99.90;;;;;;5112371;28;20027;-43
2022/06/06 01:35:08;;;;;;;13.02;5.30;;;12.80;99.90;;;;;;5112182;28;20098;-55
2022/06/06 01:37:38;;;;;;;12.77;5.22;;;12.70;99.90;;;;;;5104087;28;20385;-55
2022/06/06 01:40:11;;;;;;;9.18;5.18;;;12.70;99.90;;;;;;5109062;28;20055;-58
2022/06/06 01:42:50;;;;;;;8.35;4.72;;;12.70;99.90;;;;;;5112045;28;20030;-46
2022/06/06 01:45:28;;;;;;;11.75;5.05;;;12.70;99.90;;;;;;5111970;28;20027;-59
2022/06/06 01:48:01;;;;;;;11.35;5.05;;;12.70;99.90;;;;;;5100865;28;20633;-58
2022/06/06 01:50:29;;;;;;;12.65;4.85;;;12.70;99.90;;;;;;5110416;28;20020;-55
2022/06/06 01:53:07;;;;;;;9.85;5.13;;;12.70;99.90;;;;;;5111921;28;20410;-61
2022/06/06 01:55:35;;;;;;;11.50;4.97;;;12.70;99.90;;;;;;5111938;28;20028;-55
2022/06/06 01:58:06;;;;;;;14.38;4.95;;;12.70;99.90;;;;;;5110092;28;20130;-44
2022/06/06 02:00:34;;;;;;;12.18;4.90;;;12.70;99.90;;;;;;5105187;28;20028;-52
2022/06/06 02:03:00;;;;;;;11.30;4.82;;;12.70;99.90;;;;;;5090787;28;20024;-57
2022/06/06 02:05:26;;;;;;;12.60;4.75;;;12.70;99.90;;;;;;5094625;28;20030;-59
2022/06/06 02:07:52;;;;;;;24.55;5.18;;;12.70;99.90;;;;;;5092236;28;20545;-61
2022/06/06 02:10:19;;;;;;;10.93;4.93;;;12.60;99.90;;;;;;5098734;28;20070;-60
2022/06/06 02:12:45;;;;;;;10.48;4.80;;;12.70;99.90;;;;;;5108073;28;20468;-56
2022/06/06 02:15:14;;;;;;;15.65;5.22;;;12.60;99.90;;;;;;5111760;28;20046;-57
2022/06/06 02:17:40;;;;;;;13.65;5.20;;;12.70;99.90;;;;;;5102453;28;20086;-58
2022/06/06 02:20:07;;;;;;;11.38;4.97;;;12.70;99.90;;;;;;5098262;28;20414;-58
2022/06/06 02:22:33;;;;;;;12.45;4.75;;;12.70;99.90;;;;;;5111831;28;20059;-53
2022/06/06 02:24:59;;;;;;;12.23;5.10;;;12.70;99.90;;;;;;5098827;28;20064;-54
2022/06/06 02:27:25;;;;;;;12.98;5.00;;;12.70;99.90;;;;;;5100632;28;20540;-63
2022/06/06 02:29:51;;;;;;;12.27;5.00;;;12.70;99.90;;;;;;5081502;28;20524;-54
2022/06/06 02:32:16;;;;;;;14.68;5.60;;;12.70;99.90;;;;;;5106818;28;20114;-54
2022/06/06 02:34:42;;;;;;;17.00;6.57;;;12.70;99.90;;;;;;5110244;28;20438;-56
2022/06/06 02:37:08;;;;;;;15.30;5.40;;;12.70;99.90;;;;;;5104037;28;20116;-54
2022/06/06 02:39:34;;;;;;;10.73;4.88;;;12.60;99.90;;;;;;5111352;28;20475;-48
2022/06/06 02:41:59;;;;;;;14.80;4.97;;;12.70;99.90;;;;;;5111075;28;20373;-45
2022/06/06 02:44:25;;;;;;;14.40;5.07;;;12.70;99.90;;;;;;5111071;28;20027;-41
2022/06/06 02:46:51;;;;;;;9.93;5.60;;;12.70;99.90;;;;;;5109552;28;20035;-58
2022/06/06 02:49:16;;;;;;;12.05;5.07;;;12.60;99.90;;;;;;5111161;28;20020;-47
2022/06/06 02:51:42;;;;;;;12.10;5.78;;;12.70;99.90;;;;;;5111347;28;20020;-57
2022/06/06 02:54:08;;;;;;;14.95;5.35;;;12.70;99.90;;;;;;5111041;28;20060;-57
2022/06/06 02:56:34;;;;;;;8.63;4.40;;;12.60;99.90;;;;;;5110637;28;20032;-55
2022/06/06 02:59:04;;;;;;;10.73;4.80;;;12.60;99.90;;;;;;5107658;28;20035;-54
2022/06/06 03:01:31;;;;;;;13.93;5.05;;;12.60;99.90;;;;;;5111052;28;20096;-59
2022/06/06 03:03:56;;;;;;;11.32;4.95;;;12.60;99.90;;;;;;5109064;28;20016;-56
2022/06/06 03:06:55;;;;;;;11.13;4.88;;;12.60;99.90;;;;;;5111133;28;20434;-54
2022/06/06 03:09:44;;;;;;;11.60;5.15;;;12.60;99.90;;;;;;5047669;28;20085;-58
2022/06/06 03:12:33;;;;;;;13.52;4.93;;;12.50;99.90;;;;;;5104983;28;20032;-58
2022/06/06 03:15:08;;;;;;;11.10;5.35;;;12.50;99.90;;;;;;5114936;28;20024;-40
2022/06/06 03:20:54;;;;;;;12.20;5.03;;;12.50;99.90;;;;;;5104644;28;20038;-39
2022/06/06 03:23:41;;;;;;;9.18;5.03;;;12.50;99.90;;;;;;5114525;28;20110;-39
2022/06/06 03:26:13;;;;;;;11.15;5.13;;;12.50;99.90;;;;;;5114537;28;20540;-39
2022/06/06 03:29:07;;;;;;;13.98;6.07;;;12.60;99.90;;;;;;5102535;28;20023;-41
2022/06/06 03:31:46;;;;;;;12.90;5.75;;;12.60;99.90;;;;;;5114449;28;20655;-38
2022/06/06 03:34:20;;;;;;;9.05;4.93;;;12.60;99.90;;;;;;5114495;28;20027;-38
2022/06/06 03:37:32;;;;;;;9.15;5.10;;;12.60;99.90;;;;;;5112400;28;20067;-38
2022/06/06 03:40:14;;;;;;;11.02;5.57;;;12.60;99.90;;;;;;5069152;28;20055;-38
2022/06/06 03:42:46;;;;;;;8.20;5.97;;;12.60;99.90;;;;;;5113972;28;20764;-38
2022/06/06 03:45:35;;;;;;;11.38;5.35;;;12.60;99.90;;;;;;5114204;28;20106;-38
2022/06/06 03:48:01;;;;;;;7.13;4.70;;;12.70;99.90;;;;;;5112946;28;20024;-38
2022/06/06 03:50:48;;;;;;;10.05;4.75;;;12.60;99.90;;;;;;5114232;28;20046;-42
2022/06/06 03:53:56;;;;;;;13.38;5.13;;;12.70;99.90;;;;;;5114242;28;20085;-38
2022/06/06 03:56:48;;;;;;;11.75;5.40;;;12.70;99.90;;;;;;5113949;28;20031;-38
2022/06/06 03:59:16;;;;;;;12.57;5.43;;;12.80;99.90;;;;;;5113218;28;20032;-40
2022/06/06 04:01:43;;;;;;;10.23;5.50;;;12.80;99.90;;;;;;5114054;28;20040;-41
2022/06/06 04:04:09;;;;;;;14.57;5.55;;;12.80;99.90;;;;;;5113834;28;20012;-47
2022/06/06 04:06:35;;;;;;;8.02;5.30;;;12.80;99.90;;;;;;5113599;28;20157;-59
2022/06/06 04:09:02;;;;;;;9.57;6.03;;;12.80;99.90;;;;;;5107386;28;20102;-53
2022/06/06 04:11:38;;;;;;;12.95;5.35;;;12.90;99.90;;;;;;5102005;28;20075;-45
2022/06/06 04:14:22;;;;;;;9.10;5.03;;;12.90;99.90;;;;;;5113632;28;20038;-62
2022/06/06 04:17:05;;;;;;;8.13;5.07;;;12.90;99.90;;;;;;5111609;28;20019;-55
2022/06/06 04:19:43;;;;;;;9.80;5.03;;;12.90;99.90;;;;;;5112162;28;20031;-56
2022/06/06 04:22:12;;;;;;;10.10;5.13;;;13.00;99.90;;;;;;5113857;28;20062;-57
2022/06/06 04:24:43;;;;;;;10.55;5.30;;;13.00;99.90;;;;;;5113590;28;20016;-55
2022/06/06 04:27:22;;;;;;;9.63;4.60;;;13.00;99.90;;;;;;5111771;28;20484;-56
2022/06/06 04:30:09;;;;;;;12.57;5.45;;;13.10;99.90;;;;;;5113819;28;20084;-58
2022/06/06 04:32:54;;;;;;;11.35;5.00;;;13.10;99.90;;;;;;5113262;28;20055;-61
2022/06/06 04:35:28;;;;;;;9.15;4.65;;;13.20;99.90;;;;;;5113339;28;20106;-54
2022/06/06 04:38:08;;;;;;;9.35;5.10;;;13.20;99.90;;;;;;5104330;28;20107;-56
2022/06/06 04:40:55;;;;;;;8.43;5.20;;;13.20;99.90;;;;;;5113245;28;20035;-56
2022/06/06 04:43:39;;;;;;;9.25;4.95;;;13.20;99.90;;;;;;5113076;28;20476;-48
2022/06/06 04:46:19;;;;;;;10.77;5.10;;;13.30;99.90;;;;;;5113107;28;20030;-52
2022/06/06 04:48:46;;;;;;;11.27;4.90;;;13.30;99.90;;;;;;5102193;28;20344;-57
2022/06/06 04:51:17;;;;;;;8.55;4.82;;;13.30;99.90;;;;;;5112934;28;20051;-52
2022/06/06 04:53:46;;;;;;;7.88;4.72;;;13.30;99.90;;;;;;5113105;28;20073;-57
2022/06/06 04:56:14;;;;;;;8.45;5.25;;;13.30;99.90;;;;;;5112873;28;20085;-55
2022/06/06 04:58:43;;;;;;;9.63;5.53;;;13.40;99.90;;;;;;5100191;28;20480;-56
2022/06/06 05:01:11;;;;;;;10.07;5.17;;;13.40;99.90;;;;;;5112956;28;20284;-58
2022/06/06 05:03:37;;;;;;;7.40;5.00;;;13.40;99.90;;;;;;5112709;28;20306;-57
2022/06/06 05:06:37;;;;;;;9.95;5.75;;;13.40;99.90;;;;;;5112917;28;20036;-59
2022/06/06 05:09:02;;;;;;;;;;;13.40;99.90;;;;;;5097586;28;20222;-55
2022/06/06 05:11:47;;;;;;;9.27;5.68;;;13.60;99.90;;;;;;5094854;28;20344;-50
2022/06/06 05:14:37;;;;;;;10.63;5.70;;;13.60;99.90;;;;;;5095007;28;20036;-63
2022/06/06 05:17:30;;;;;;;10.63;6.13;;;13.70;99.90;;;;;;5077979;28;20036;-54
2022/06/06 05:19:58;;;;;;;10.00;5.97;;;13.80;99.90;;;;;;5091894;28;20064;-60
2022/06/06 05:23:04;;;;;;;8.48;6.03;;;13.80;99.90;;;;;;5095018;28;20032;-53
2022/06/06 05:25:36;;;;;;;11.35;5.97;;;13.80;99.90;;;;;;5091820;28;20508;-55
2022/06/06 05:28:24;;;;;;;8.98;5.55;;;13.80;99.80;;;;;;5093482;28;20221;-55
2022/06/06 05:30:58;;;;;;;8.50;5.50;;;13.80;99.90;;;;;;5091820;28;20118;-59
2022/06/06 05:33:47;;;;;;;8.85;5.65;;;13.80;99.90;;;;;;5091550;28;20024;-55
2022/06/06 05:36:50;;;;;;;11.38;4.90;;;13.90;99.90;;;;;;5091194;28;20089;-56
2022/06/06 05:39:21;;;;;;;7.95;4.90;;;13.90;99.90;;;;;;5094776;28;20111;-56
2022/06/06 05:42:19;;;;;;;9.07;5.07;;;13.90;99.90;;;;;;5091469;28;20032;-57
2022/06/06 05:45:06;;;;;;;11.07;5.18;;;13.80;99.90;;;;;;5091420;28;20038;-55
2022/06/06 05:47:45;;;;;;;6.40;4.82;;;13.90;99.90;;;;;;5095626;28;20393;-61
2022/06/06 05:50:34;;;;;;;9.10;5.07;;;13.80;99.90;;;;;;5092316;28;20020;-51
2022/06/06 05:53:21;;;;;;;13.75;5.80;;;13.70;99.50;;;;;;5100656;28;20024;-50
2022/06/06 05:55:56;;;;;;;12.27;5.70;;;13.80;99.90;;;;;;5107830;28;20058;-58
2022/06/06 05:58:56;;;;;;;10.82;6.82;;;13.80;99.90;;;;;;5109097;28;20070;-58
2022/06/06 06:02:03;;;;;;;9.57;5.60;;;13.90;99.90;;;;;;5099297;28;20392;-51
2022/06/06 06:04:41;;;;;;;9.07;6.30;;;13.90;99.90;;;;;;5111629;28;20047;-63
2022/06/06 06:07:41;;;;;;;10.10;5.75;;;14.00;99.90;;;;;;5111612;28;20032;-57
2022/06/06 06:10:21;;;;;;;12.35;5.80;;;14.00;99.90;;;;;;5055749;28;20047;-53
2022/06/06 06:13:12;;;;;;;8.68;5.75;;;14.10;99.70;;;;;;5109618;28;20027;-58
2022/06/06 06:15:43;;;;;;;8.23;5.63;;;14.20;99.90;;;;;;5109569;28;20149;-53
2022/06/06 06:18:32;;;;;;;9.20;6.07;;;14.20;99.90;;;;;;5109488;28;20028;-56
2022/06/06 06:21:04;;;;;;;10.88;5.93;;;14.30;99.90;;;;;;5093499;28;20095;-48
2022/06/06 06:23:34;;;;;;;12.35;6.40;;;14.30;99.80;;;;;;5090712;28;20357;-59
2022/06/06 06:26:01;;;;;;;;;;;14.30;99.90;;;;;;5100890;28;20480;-60
2022/06/06 06:28:29;;;;;;;12.23;6.55;;;14.40;99.90;;;;;;5090944;28;20358;-51
2022/06/06 06:31:07;;;;;;;9.63;5.90;;;14.40;99.80;;;;;;5090777;28;20035;-56
2022/06/06 06:34:07;;;;;;;10.20;6.72;;;14.40;99.30;;;;;;5090898;28;20469;-48
2022/06/06 06:36:44;;;;;;;9.27;5.95;;;14.50;99.50;;;;;;5090903;28;20043;-43
2022/06/06 06:39:25;;;;;;;9.63;5.90;;;14.50;99.30;;;;;;5090948;28;20043;-55
2022/06/06 06:41:53;;;;;;;9.20;5.53;;;14.50;99.00;;;;;;5090895;28;20554;-57
2022/06/06 06:44:47;;;;;;;7.73;6.63;;;14.60;98.40;;;;;;5090751;28;20031;-45
2022/06/06 06:47:18;;;;;;;9.30;6.25;;;14.60;99.30;;;;;;5082480;28;20032;-61
2022/06/06 06:49:55;;;;;;;7.88;5.47;;;14.70;99.00;;;;;;5094952;28;20434;-53
2022/06/06 06:52:37;;;;;;;6.45;5.38;;;14.70;98.10;;;;;;5094971;28;20052;-54
2022/06/06 06:55:25;;;;;;;7.22;5.20;;;14.70;98.50;;;;;;5104870;28;20016;-59
2022/06/06 06:58:15;;;;;;;8.65;5.57;;;14.80;97.40;;;;;;5078387;28;20439;-61
2022/06/06 07:00:55;;;;;;;7.40;5.80;;;14.90;97.80;;;;;;5094393;28;20040;-58
2022/06/06 07:09:37;;;;;;;8.70;5.50;;;15.60;98.80;;;;;;5094643;28;20081;-55
2022/06/06 07:12:06;;;;;;;7.00;5.28;;;15.60;98.10;;;;;;5107931;28;20027;-46
2022/06/06 07:14:40;;;;;;;6.90;4.45;;;15.60;96.50;;;;;;5102305;28;20020;-50
2022/06/06 07:17:10;;;;;;;5.28;4.45;;;15.60;95.90;;;;;;5094547;28;20024;-50
2022/06/06 07:19:44;;;;;;;7.45;5.78;;;15.90;96.90;;;;;;5093868;28;20032;-60
2022/06/06 07:22:11;;;;;;;6.03;4.53;;;16.50;99.50;;;;;;5094319;28;20032;-57
2022/06/06 07:24:38;;;;;;;8.40;4.80;;;17.00;96.00;;;;;;5093921;28;20381;-52
2022/06/06 07:27:08;;;;;;;9.38;4.40;;;17.40;95.90;;;;;;5093649;28;20545;-60
2022/06/06 07:29:34;;;;;;;7.90;5.10;;;17.40;92.90;;;;;;5093512;28;20077;-56
2022/06/06 07:32:06;;;;;;;8.45;4.88;;;17.20;93.00;;;;;;5093535;28;20103;-49
2022/06/06 07:35:03;;;;;;;7.70;5.50;;;16.90;92.10;;;;;;5093399;28;20012;-56
2022/06/06 07:37:41;;;;;;;7.93;5.50;;;16.70;93.40;;;;;;5093211;28;20020;-63
2022/06/06 07:40:21;;;;;;;6.20;4.72;;;16.60;93.70;;;;;;5096488;28;20027;-45
2022/06/06 07:43:24;;;;;;;6.35;4.10;;;16.30;93.00;;;;;;5093859;28;20112;-40
2022/06/06 07:45:53;;;;;;;8.55;5.55;;;16.40;94.90;;;;;;5103171;28;20037;-42
2022/06/06 07:48:24;;;;;;;7.60;5.88;;;16.50;93.80;;;;;;5114296;28;20494;-41
2022/06/06 07:51:06;;;;;;;8.73;5.00;;;16.90;93.50;;;;;;5114218;28;20023;-40
2022/06/06 07:53:53;;;;;;;4.90;3.75;;;17.60;94.90;;;;;;5114015;28;20077;-41
2022/06/06 07:56:44;;;;;;;3.95;2.88;;;18.50;93.10;;;;;;5113970;28;20016;-41
2022/06/06 07:59:27;;;;;;;5.82;2.50;;;18.90;91.70;;;;;;5104231;28;20480;-43
2022/06/06 08:02:14;;;;;;;6.20;2.33;;;19.00;91.20;;;;;;5101466;28;20047;-41
2022/06/06 08:04:55;;;;;;;3.45;2.45;;;18.50;86.80;;;;;;5108173;28;20020;-55
2022/06/06 08:07:48;;;;;;;4.13;2.55;;;18.00;90.50;;;;;;5092251;28;20032;-53
2022/06/06 08:10:16;;;;;;;4.72;2.75;;;17.70;91.10;;;;;;5094221;28;20028;-57
2022/06/06 08:13:18;;;;;;;3.97;2.88;;;17.20;92.60;;;;;;5092059;28;20431;-59
2022/06/06 08:16:13;;;;;;;6.22;4.22;;;17.10;93.50;;;;;;5091711;28;20101;-51
2022/06/06 08:19:00;;;;;;;5.13;4.00;;;17.20;95.20;;;;;;5100387;28;20036;-58
2022/06/06 08:21:36;;;;;;;3.47;2.60;;;18.30;96.60;;;;;;5091789;28;20028;-43
2022/06/06 08:24:08;;;;;;;4.43;2.70;;;18.90;90.30;;;;;;5092161;28;20084;-44
2022/06/06 08:26:43;;;;;;;3.67;2.40;;;18.90;89.10;;;;;;5092019;28;20024;-52
2022/06/06 08:29:10;;;;;;;2.65;2.10;;;18.70;90.40;;;;;;5091893;28;20484;-61
2022/06/06 08:31:35;;;;;;;3.67;2.90;;;18.50;88.50;;;;;;5091838;28;20419;-61
2022/06/06 08:34:02;;;;;;;4.95;2.67;;;18.10;90.40;;;;;;5091811;28;20024;-51
2022/06/06 08:36:48;;;;;;;5.95;2.60;;;17.70;90.60;;;;;;5099779;28;20076;-56
2022/06/06 08:39:39;;;;;;;5.55;3.00;;;17.50;90.90;;;;;;5091712;28;20097;-50
2022/06/06 08:42:30;;;;;;;3.97;3.00;;;17.20;92.20;;;;;;5091942;28;20044;-50
2022/06/06 08:45:21;;;;;;;5.05;3.25;;;17.00;91.70;;;;;;5091414;28;20081;-57
2022/06/06 08:48:13;;;;;;;6.10;3.20;;;17.10;93.50;;;;;;5091172;28;20040;-55
2022/06/06 08:50:50;;;;;;;5.35;2.78;;;17.30;93.50;;;;;;5094012;28;20020;-53
2022/06/06 08:53:25;;;;;;;5.95;2.97;;;17.30;92.10;;;;;;5091185;28;20020;-49
2022/06/06 08:59:07;;;;;;;6.75;3.22;;;17.30;93.40;;;;;;5073589;27;20338;-59
2022/06/06 09:01:54;;;;;;;4.80;3.00;;;17.30;92.50;;;;;;5061918;28;20021;-55
2022/06/06 09:05:04;;;;;;;8.65;3.22;;;17.30;92.00;;;;;;5048071;28;20037;-54
2022/06/06 09:07:53;;;;;;;5.07;3.55;;;17.00;91.50;;;;;;5041171;28;20033;-59
2022/06/06 09:10:44;;;;;;;4.18;3.00;;;16.80;93.70;;;;;;5051470;28;20059;-52
2022/06/06 09:13:43;;;;;;;3.92;3.05;;;16.50;91.30;;;;;;5067193;28;20067;-54
2022/06/06 09:16:23;;;;;;;6.68;3.70;;;16.30;92.00;;;;;;5067770;28;20021;-59
2022/06/06 09:19:00;;;;;;;7.72;3.33;;;16.10;93.60;;;;;;5061606;28;20484;-60
2022/06/06 09:21:59;;;;;;;6.35;3.38;;;16.00;93.40;;;;;;5067907;28;20017;-57
2022/06/06 09:24:52;;;;;;;5.15;3.90;;;15.90;93.70;;;;;;5067798;28;20024;-58
2022/06/06 09:27:42;;;;;;;7.32;4.30;;;15.90;94.70;;;;;;5057338;28;20521;-41
2022/06/06 09:30:17;;;;;;;6.40;4.50;;;16.00;95.60;;;;;;5067625;28;20017;-41
2022/06/06 09:33:21;;;;;;;5.45;4.35;;;16.10;95.10;;;;;;5050814;28;20025;-47
2022/06/06 09:36:24;;;;;;;4.22;3.65;;;16.40;96.10;;;;;;5039192;28;20033;-51
2022/06/06 09:39:13;;;;;;;4.63;3.30;;;16.50;93.40;;;;;;5047578;28;20037;-57
2022/06/06 09:42:00;;;;;;;6.40;3.55;;;16.70;93.80;;;;;;5047417;28;20037;-49
2022/06/06 09:44:56;;;;;;;6.05;3.90;;;16.90;94.00;;;;;;5047536;28;20064;-52
2022/06/06 09:47:40;;;;;;;4.88;3.42;;;17.10;95.90;;;;;;5045472;28;20029;-55
2022/06/06 09:50:12;;;;;;;4.57;3.60;;;17.20;93.00;;;;;;5047191;28;20020;-45
2022/06/06 09:53:15;;;;;;;6.05;3.38;;;17.20;92.70;;;;;;5055924;28;20029;-49
2022/06/06 09:59:02;;;;;;;8.60;3.40;;;16.90;93.80;;;;;;5047743;28;20080;-55
2022/06/06 10:01:39;;;;;;;4.90;3.40;;;16.90;91.70;;;;;;5048626;28;20057;-57
2022/06/06 10:04:08;;;;;;;7.40;4.30;;;17.00;91.70;;;;;;5047049;28;20029;-50
2022/06/06 10:06:34;;;;;;;5.05;3.63;;;17.10;92.90;;;;;;5047107;28;20036;-53
2022/06/06 10:09:02;;;;;;;6.22;3.50;;;17.30;91.20;;;;;;5048455;28;20037;-52
2022/06/06 10:11:43;;;;;;;6.38;3.58;;;17.70;91.20;;;;;;5042183;28;20017;-55
2022/06/06 10:14:42;;;;;;;9.35;3.30;;;18.00;92.20;;;;;;5053692;28;20116;-51
2022/06/06 10:17:27;;;;;;;6.00;3.67;;;17.90;91.80;;;;;;5053477;28;20021;-53
2022/06/06 10:20:18;;;;;;;6.57;3.88;;;17.80;91.70;;;;;;5041441;28;20032;-56
2022/06/06 10:23:25;;;;;;;3.63;2.88;;;17.80;91.70;;;;;;5035286;28;20104;-57
2022/06/06 10:26:21;;;;;;;4.60;2.92;;;17.40;89.20;;;;;;5053384;28;20063;-54
2022/06/06 10:29:00;;;;;;;5.32;3.78;;;17.30;90.80;;;;;;5053397;28;20021;-49
2022/06/06 10:31:32;;;;;;;6.13;3.92;;;17.10;92.60;;;;;;5053286;28;20017;-46
2022/06/06 10:34:13;;;;;;;9.60;4.18;;;17.10;93.30;;;;;;5053333;28;20531;-54
2022/06/06 10:37:16;;;;;;;7.50;3.83;;;17.00;93.80;;;;;;5052561;28;20075;-47
2022/06/06 10:39:49;;;;;;;6.53;4.20;;;16.90;93.70;;;;;;5044599;28;20492;-53
2022/06/06 10:42:46;;;;;;;5.28;3.90;;;16.90;93.60;;;;;;5050210;28;20033;-58
2022/06/06 10:45:16;;;;;;;7.07;4.38;;;16.80;92.60;;;;;;5040440;28;20013;-42
2022/06/06 10:47:57;;;;;;;6.45;4.20;;;16.70;92.70;;;;;;5052899;28;20514;-45
2022/06/06 10:53:59;;;;;;;9.57;5.03;;;16.30;92.70;;;;;;5052729;28;20044;-58
2022/06/06 10:56:56;;;;;;;9.52;4.13;;;16.20;94.30;;;;;;5041289;28;20024;-61
2022/06/06 10:59:40;;;;;;;7.10;3.92;;;16.00;93.90;;;;;;5071040;28;20025;-59
2022/06/06 11:02:48;;;;;;;7.88;4.20;;;15.80;94.10;;;;;;5069677;28;20020;-52
2022/06/06 11:05:38;;;;;;;7.60;4.20;;;15.70;95.30;;;;;;5064050;28;20031;-54
2022/06/06 11:08:26;;;;;;;8.63;4.55;;;15.70;96.10;;;;;;5062147;28;20021;-56
2022/06/06 11:11:05;;;;;;;10.73;4.70;;;15.70;96.50;;;;;;5067335;28;20212;-56
2022/06/06 11:13:52;;;;;;;11.93;4.60;;;15.60;95.80;;;;;;5070742;28;20048;-59
2022/06/06 11:16:48;;;;;;;10.57;4.50;;;15.60;96.10;;;;;;5064571;28;20030;-52
2022/06/06 11:19:42;;;;;;;11.15;4.40;;;15.60;97.10;;;;;;5063971;28;20615;-57
2022/06/06 11:22:07;;;;;;;9.25;4.75;;;15.70;96.90;;;;;;5056450;28;20024;-52
2022/06/06 11:24:47;;;;;;;10.48;4.20;;;15.70;97.60;;;;;;5061114;28;20021;-56
2022/06/06 11:27:47;;;;;;;12.15;4.72;;;15.80;96.70;;;;;;5060833;28;20033;-57
2022/06/06 11:30:19;;;;;;;;;;;15.90;97.10;;;;;;5052371;28;20032;-59
2022/06/06 11:33:17;;;;;;;9.82;4.60;;;16.10;97.80;;;;;;5058590;28;19904;-60
2022/06/06 11:36:19;;;;;;;11.15;4.63;;;16.30;96.60;;;;;;5053840;28;20415;-59
2022/06/06 11:38:48;;;;;;;7.07;4.07;;;16.40;95.70;;;;;;5064893;28;20454;-62
2022/06/06 11:41:39;;;;;;;8.48;3.58;;;16.60;95.90;;;;;;5052956;28;20112;-54
2022/06/06 11:44:11;;;;;;;10.90;4.18;;;16.70;96.70;;;;;;5054617;28;20506;-57
2022/06/06 11:46:45;;;;;;;10.70;3.88;;;16.80;96.60;;;;;;5053819;28;20021;-57
2022/06/06 11:49:45;;;;;;;12.90;4.55;;;16.90;94.10;;;;;;5066956;28;20044;-57
2022/06/06 11:52:35;;;;;;;15.82;4.57;;;17.00;93.80;;;;;;5051914;28;20807;-59
2022/06/06 11:55:07;;;;;;;14.90;4.70;;;17.10;93.90;;;;;;5057192;28;20410;-58
2022/06/06 11:58:07;;;;;;;9.63;4.40;;;17.20;95.20;;;;;;5065884;28;20098;-58
2022/06/06 12:00:58;;;;;;;9.38;3.80;;;17.30;95.40;;;;;;5027822;28;20024;-59
2022/06/06 12:03:45;;;;;;;10.38;4.40;;;17.30;94.20;;;;;;5051357;28;20495;-58
2022/06/06 12:06:17;;;;;;;12.60;4.78;;;17.30;94.50;;;;;;5051496;28;20025;-49
2022/06/06 12:09:33;;;;;;;12.48;3.88;;;17.40;93.70;;;;;;5051370;28;20033;-57
2022/06/06 12:12:08;;;;;;;10.55;3.35;;;17.60;92.60;;;;;;4989364;28;20034;-53
2022/06/06 12:14:50;;;;;;;9.00;3.08;;;17.60;91.70;;;;;;5067936;28;20143;-57
2022/06/06 12:17:44;;;;;;;11.57;3.78;;;17.60;91.30;;;;;;5070731;28;20028;-56
2022/06/06 12:20:34;;;;;;;10.10;3.00;;;17.70;93.00;;;;;;5070973;28;20032;-61
2022/06/06 12:23:12;;;;;;;7.18;2.88;;;17.70;92.10;;;;;;5070011;28;20489;-57
2022/06/06 12:25:51;;;;;;;12.73;3.50;;;17.60;91.50;;;;;;5058451;28;20055;-62
2022/06/06 12:29:07;;;;;;;9.33;3.00;;;17.30;92.40;;;;;;5067614;28;20102;-60
2022/06/06 12:31:57;;;;;;;7.88;3.42;;;16.90;92.60;;;;;;4999620;28;20594;-57
2022/06/06 12:34:41;;;;;;;7.80;3.30;;;16.70;93.50;;;;;;5009211;28;20083;-52
2022/06/06 12:37:22;;;;;;;9.52;4.22;;;16.50;93.80;;;;;;5060761;28;20040;-53
2022/06/06 12:40:24;;;;;;;11.35;3.95;;;16.40;95.50;;;;;;5071110;28;20029;-57
2022/06/06 12:43:13;;;;;;;8.88;3.50;;;16.40;94.60;;;;;;5019232;28;20507;-58
2022/06/06 12:46:03;;;;;;;8.90;3.83;;;16.50;95.10;;;;;;5069993;28;20395;-59
2022/06/06 12:48:50;;;;;;;13.80;4.20;;;16.60;94.10;;;;;;5071069;28;20066;-61
2022/06/06 12:51:40;;;;;;;11.68;3.28;;;16.70;93.90;;;;;;5070828;28;20024;-54
2022/06/06 12:58:07;;;;;;;10.52;3.45;;;16.80;91.90;;;;;;5008652;28;20134;-49
2022/06/06 13:03:48;;;;;;;7.68;3.17;;;16.80;94.10;;;;;;5071208;28;20080;-59
2022/06/06 13:06:49;;;;;;;10.55;3.70;;;16.90;93.40;;;;;;5066395;28;20020;-60
2022/06/06 13:09:32;;;;;;;13.50;3.78;;;16.90;92.80;;;;;;4981995;28;20137;-55
2022/06/06 13:12:27;;;;;;;10.02;3.70;;;17.00;93.90;;;;;;5058893;28;20039;-52
2022/06/06 13:15:05;;;;;;;37.17;8.68;;;17.20;92.30;;;;;;5043095;28;20037;-54
2022/06/06 13:17:52;;;;;;;14.05;4.47;;;17.50;92.80;;;;;;5066738;28;20033;-58
2022/06/06 13:20:38;;;;;;;11.23;4.35;;;17.70;92.80;;;;;;5070523;28;20028;-56
2022/06/06 13:23:16;;;;;;;15.13;3.60;;;18.00;89.20;;;;;;5067788;28;20032;-52
2022/06/06 13:25:57;;;;;;;10.90;3.55;;;18.30;91.30;;;;;;5067655;28;20044;-53
2022/06/06 13:28:28;;;;;;;8.45;3.10;;;18.70;89.70;;;;;;5055783;28;20111;-52
2022/06/06 13:31:17;;;;;;;8.20;2.78;;;19.10;90.80;;;;;;5050183;28;20083;-47
2022/06/06 13:33:55;;;;;;;6.22;2.83;;;19.50;86.80;;;;;;5065924;28;20028;-45
2022/06/06 13:36:39;;;;;;;7.65;2.60;;;19.70;84.70;;;;;;5063416;28;20025;-58
2022/06/06 13:39:16;;;;;;;10.15;2.85;;;19.90;82.90;;;;;;5050421;28;20045;-61
2022/06/06 13:41:54;;;;;;;5.82;2.42;;;20.20;84.30;;;;;;5050145;28;20534;-49
2022/06/06 13:44:45;;;;;;;10.10;2.40;;;20.10;82.30;;;;;;5053873;28;20040;-58
2022/06/06 13:47:29;;;;;;;9.35;2.67;;;19.90;83.90;;;;;;5057560;28;20552;-51
2022/06/06 13:50:07;;;;;;;11.38;3.25;;;19.60;82.90;;;;;;5056367;28;20025;-43
2022/06/06 13:52:51;;;;;;;9.35;2.85;;;19.40;86.50;;;;;;5042606;28;20146;-43
2022/06/06 13:55:25;;;;;;;9.20;2.95;;;19.30;85.80;;;;;;5054702;28;20033;-55
2022/06/06 13:58:00;;;;;;;9.90;3.53;;;19.10;87.90;;;;;;5053551;28;20045;-54
2022/06/06 14:00:45;;;;;;;8.48;2.92;;;19.40;88.20;;;;;;5049757;28;20576;-56
2022/06/06 14:03:41;;;;;;;6.05;2.40;;;19.60;83.90;;;;;;5070478;28;20013;-53
2022/06/06 14:06:47;;;;;;;8.75;2.50;;;19.60;80.10;;;;;;5070405;28;20025;-57
2022/06/06 14:09:17;;;;;;;6.85;2.13;;;19.60;83.40;;;;;;5069830;28;20028;-57
2022/06/06 14:12:14;;;;;;;6.55;2.25;;;19.80;82.10;;;;;;5062149;28;20024;-60
2022/06/06 14:14:42;;;;;;;7.25;2.20;;;19.90;80.50;;;;;;5051336;28;20112;-59
2022/06/06 14:17:11;;;;;;;6.93;2.58;;;19.90;77.80;;;;;;5073705;28;20116;-61